createdAt,value
2022-10-18T00:01:15.249Z,18.87
2022-10-18T00:04:02.225Z,19.33
2022-10-18T00:06:49.229Z,20.43
2022-10-18T00:09:36.167Z,22.60
2022-10-18T00:12:23.181Z,24.47
2022-10-18T00:15:11.623Z,28.57
2022-10-18T00:17:58.673Z,30.37
2022-10-18T00:20:46.048Z,29.37
2022-10-18T00:23:34.390Z,23.60
2022-10-18T00:26:26.905Z,32.30
2022-10-18T00:29:16.049Z,30.00
2022-10-18T00:32:03.056Z,30.63
2022-10-18T00:34:50.061Z,33.93
2022-10-18T00:37:37.113Z,33.83
2022-10-18T00:40:24.025Z,30.13
2022-10-18T00:43:17.249Z,28.47
2022-10-18T00:46:04.252Z,33.97
2022-10-18T00:48:55.958Z,37.57
2022-10-18T00:51:46.733Z,28.50
2022-10-18T00:54:36.036Z,33.97
2022-10-18T00:57:24.296Z,31.57
2022-10-18T01:00:13.237Z,38.23
2022-10-18T01:03:00.396Z,32.03
2022-10-18T01:05:48.517Z,28.23
2022-10-18T01:08:58.566Z,34.37
2022-10-18T01:12:24.929Z,35.70
2022-10-18T01:15:24.305Z,32.60
2022-10-18T01:18:32.576Z,35.00
2022-10-18T01:21:19.454Z,36.27
2022-10-18T01:24:33.718Z,40.83
2022-10-18T01:27:33.720Z,30.83
2022-10-18T01:31:08.666Z,33.07
2022-10-18T01:34:03.125Z,33.07
2022-10-18T01:36:54.101Z,32.63
2022-10-18T01:39:45.900Z,34.43
2022-10-18T01:42:32.952Z,37.53
2022-10-18T01:45:23.416Z,32.40
2022-10-18T01:48:12.166Z,37.83
2022-10-18T01:50:59.432Z,34.60
2022-10-18T01:53:46.388Z,39.23
2022-10-18T01:57:03.797Z,36.30
2022-10-18T02:00:01.865Z,29.70
2022-10-18T02:02:59.761Z,30.43
2022-10-18T02:05:51.261Z,32.63
2022-10-18T02:08:48.306Z,28.77
2022-10-18T02:11:38.305Z,27.73
2022-10-18T02:14:25.886Z,30.87
2022-10-18T02:17:15.293Z,33.07
2022-10-18T02:20:05.527Z,27.43
2022-10-18T02:22:55.963Z,25.73
2022-10-18T02:25:43.077Z,28.03
2022-10-18T02:28:30.328Z,37.20
2022-10-18T02:31:30.856Z,29.40
2022-10-18T02:34:32.205Z,27.03
2022-10-18T02:37:20.506Z,30.90
2022-10-18T02:40:10.240Z,27.00
2022-10-18T02:42:58.704Z,32.70
2022-10-18T02:45:45.766Z,26.27
2022-10-18T02:48:32.758Z,27.33
2022-10-18T02:51:19.749Z,27.60
2022-10-18T02:54:08.413Z,31.27
2022-10-18T02:56:55.618Z,30.20
2022-10-18T02:59:42.590Z,31.67
2022-10-18T03:02:29.510Z,33.70
2022-10-18T03:05:16.494Z,36.73
2022-10-18T03:08:03.615Z,32.17
2022-10-18T03:10:50.615Z,41.97
2022-10-18T03:13:37.629Z,36.57
2022-10-18T03:16:24.729Z,40.10
2022-10-18T03:19:11.927Z,43.60
2022-10-18T03:21:58.925Z,38.27
2022-10-18T03:24:45.879Z,37.97
2022-10-18T03:27:33.202Z,41.73
2022-10-18T03:30:20.469Z,41.47
2022-10-18T03:33:07.490Z,39.70
2022-10-18T03:35:54.484Z,40.97
2022-10-18T03:38:41.470Z,42.17
2022-10-18T03:41:28.498Z,40.27
2022-10-18T03:44:15.458Z,46.87
2022-10-18T03:47:02.917Z,44.10
2022-10-18T03:49:53.217Z,38.60
2022-10-18T03:52:43.293Z,46.60
2022-10-18T03:55:30.716Z,40.63
2022-10-18T03:58:18.271Z,48.70
2022-10-18T04:01:05.590Z,41.90
2022-10-18T04:03:52.604Z,46.43
2022-10-18T04:06:39.663Z,53.23
2022-10-18T04:09:26.941Z,46.43
2022-10-18T04:12:13.890Z,44.30
2022-10-18T04:15:00.897Z,49.23
2022-10-18T04:17:47.881Z,52.20
2022-10-18T04:20:34.806Z,47.90
2022-10-18T04:23:21.816Z,36.07
2022-10-18T04:26:08.813Z,41.30
2022-10-18T04:28:55.788Z,41.73
2022-10-18T04:31:43.071Z,40.10
2022-10-18T04:34:30.043Z,38.80
2022-10-18T04:37:17.417Z,34.10
2022-10-18T04:40:04.838Z,42.97
2022-10-18T04:42:52.001Z,35.33
2022-10-18T04:45:38.930Z,42.17
2022-10-18T04:48:26.325Z,45.77
2022-10-18T04:51:13.351Z,40.53
2022-10-18T04:54:00.373Z,38.90
2022-10-18T04:56:47.262Z,41.43
2022-10-18T04:59:34.245Z,44.03
2022-10-18T05:02:21.155Z,49.03
2022-10-18T05:05:10.402Z,46.30
2022-10-18T05:08:00.218Z,37.47
2022-10-18T05:10:47.501Z,44.00
2022-10-18T05:13:34.519Z,38.03
2022-10-18T05:16:21.597Z,48.27
2022-10-18T05:19:08.498Z,38.73
2022-10-18T05:21:55.480Z,42.30
2022-10-18T05:24:42.415Z,44.57
2022-10-18T05:27:29.821Z,43.07
2022-10-18T05:30:16.899Z,42.37
2022-10-18T05:33:03.964Z,41.80
2022-10-18T05:35:50.923Z,42.20
2022-10-18T05:38:43.037Z,40.33
2022-10-18T05:41:30.361Z,42.27
2022-10-18T05:44:17.302Z,43.50
2022-10-18T05:47:04.247Z,40.03
2022-10-18T05:49:51.140Z,52.47
2022-10-18T05:52:38.195Z,43.70
2022-10-18T05:55:25.208Z,48.50
2022-10-18T05:58:12.189Z,51.93
2022-10-18T06:01:01.051Z,49.40
2022-10-18T06:03:48.342Z,45.93
2022-10-18T06:06:35.264Z,51.50
2022-10-18T06:09:22.391Z,50.60
2022-10-18T06:12:09.494Z,42.60
2022-10-18T06:14:56.438Z,44.20
2022-10-18T06:17:43.554Z,48.43
2022-10-18T06:20:30.449Z,50.00
2022-10-18T06:23:17.404Z,59.07
2022-10-18T06:26:07.192Z,54.10
2022-10-18T06:28:54.559Z,52.40
2022-10-18T06:31:41.677Z,59.30
2022-10-18T06:34:28.717Z,57.87
2022-10-18T06:37:15.630Z,55.70
2022-10-18T06:40:02.671Z,52.67
2022-10-18T06:42:59.965Z,48.87
2022-10-18T06:45:47.609Z,48.37
2022-10-18T06:48:35.846Z,46.97
2022-10-18T06:51:22.834Z,42.93
2022-10-18T06:54:18.157Z,39.60
2022-10-18T06:57:06.006Z,48.00
2022-10-18T06:59:53.089Z,47.40
2022-10-18T07:02:41.355Z,46.73
2022-10-18T07:05:28.422Z,42.47
2022-10-18T07:08:16.320Z,46.50
2022-10-18T07:11:03.862Z,48.63
2022-10-18T07:13:51.734Z,43.57
2022-10-18T07:16:38.787Z,37.50
2022-10-18T07:19:25.790Z,46.53
2022-10-18T07:22:12.776Z,49.80
2022-10-18T07:24:59.733Z,47.47
2022-10-18T07:27:46.702Z,49.53
2022-10-18T07:30:34.082Z,63.53
2022-10-18T07:33:21.216Z,52.33
2022-10-18T07:36:10.048Z,57.23
2022-10-18T07:38:57.186Z,57.43
2022-10-18T07:41:44.241Z,58.57
2022-10-18T07:44:31.217Z,58.90
2022-10-18T07:47:18.326Z,53.33
2022-10-18T07:50:06.162Z,54.23
2022-10-18T07:52:53.087Z,53.20
2022-10-18T07:55:40.206Z,49.97
2022-10-18T07:58:27.808Z,45.03
2022-10-18T08:01:15.479Z,52.23
2022-10-18T08:04:07.172Z,53.47
2022-10-18T08:06:55.364Z,49.60
2022-10-18T08:09:42.266Z,51.77
2022-10-18T08:12:29.239Z,51.30
2022-10-18T08:15:16.227Z,51.53
2022-10-18T08:18:03.278Z,47.90
2022-10-18T08:20:50.254Z,47.63
2022-10-18T08:23:37.817Z,51.10
2022-10-18T08:26:24.846Z,52.60
2022-10-18T08:29:31.656Z,53.37
2022-10-18T08:32:19.025Z,51.53
2022-10-18T08:35:08.625Z,56.67
2022-10-18T08:37:56.477Z,53.13
2022-10-18T08:40:44.520Z,54.63
2022-10-18T08:43:41.395Z,53.10
2022-10-18T08:46:28.762Z,46.07
2022-10-18T08:49:26.781Z,56.03
2022-10-18T08:52:28.419Z,56.23
2022-10-18T08:55:31.047Z,56.30
2022-10-18T08:58:27.498Z,58.83
2022-10-18T09:04:53.877Z,54.40
2022-10-18T09:07:51.710Z,53.00
2022-10-18T09:11:05.269Z,51.67
2022-10-18T09:14:27.902Z,50.00
2022-10-18T09:17:23.589Z,49.57
2022-10-18T09:20:50.456Z,47.77
2022-10-18T09:24:06.407Z,50.03
2022-10-18T09:27:02.438Z,50.23
2022-10-18T09:29:49.391Z,48.63
2022-10-18T09:32:48.096Z,44.30
2022-10-18T09:35:52.712Z,50.00
2022-10-18T09:38:49.738Z,49.63
2022-10-18T09:42:16.349Z,44.60
2022-10-18T09:45:13.634Z,42.57
2022-10-18T09:48:12.167Z,37.43
2022-10-18T09:51:12.642Z,38.77
2022-10-18T09:54:18.021Z,38.50
2022-10-18T09:57:14.134Z,38.47
2022-10-18T10:00:03.640Z,38.33
2022-10-18T10:02:50.624Z,32.83
2022-10-18T10:05:38.521Z,34.17
2022-10-18T10:08:33.642Z,36.97
2022-10-18T10:11:33.654Z,27.90
2022-10-18T10:14:27.345Z,27.10
2022-10-18T10:17:34.963Z,26.77
2022-10-18T10:20:25.193Z,26.07
2022-10-18T10:23:28.232Z,27.87
2022-10-18T10:26:28.236Z,31.83
2022-10-18T10:29:56.548Z,23.70
2022-10-18T10:32:47.566Z,22.60
2022-10-18T10:35:55.559Z,24.37
2022-10-18T10:38:42.513Z,26.27
2022-10-18T10:41:29.963Z,30.73
2022-10-18T10:44:25.885Z,25.43
2022-10-18T10:47:32.989Z,24.90
2022-10-18T10:50:29.126Z,27.07
2022-10-18T10:53:38.213Z,28.23
2022-10-18T10:56:31.449Z,24.43
2022-10-18T10:59:20.812Z,23.27
2022-10-18T11:02:17.695Z,24.90
2022-10-18T11:05:25.272Z,19.93
2022-10-18T11:08:19.383Z,17.90
2022-10-18T11:11:33.894Z,21.57
2022-10-18T11:14:27.241Z,19.63
2022-10-18T11:17:27.684Z,18.67
2022-10-18T11:20:31.094Z,19.43
2022-10-18T11:23:19.495Z,23.17
2022-10-18T11:26:12.522Z,13.43
2022-10-18T11:29:31.775Z,17.97
2022-10-18T11:33:03.047Z,16.77
2022-10-18T11:36:13.151Z,20.60
2022-10-18T11:39:27.187Z,21.70
2022-10-18T11:42:43.727Z,14.67
2022-10-18T11:45:42.577Z,18.30
2022-10-18T11:48:57.194Z,14.50
2022-10-18T11:52:19.082Z,19.47
2022-10-18T11:55:06.062Z,22.70
2022-10-18T11:58:03.462Z,18.63
2022-10-18T12:01:28.948Z,16.03
2022-10-18T12:04:15.878Z,15.93
2022-10-18T12:07:06.724Z,18.03
2022-10-18T12:09:55.704Z,18.83
2022-10-18T12:12:52.052Z,14.63
2022-10-18T12:15:41.424Z,15.63
2022-10-18T12:18:30.662Z,12.67
2022-10-18T12:21:25.508Z,13.70
2022-10-18T12:24:18.498Z,10.43
2022-10-18T12:27:05.907Z,11.00
2022-10-18T12:29:59.950Z,9.93
2022-10-18T12:33:03.454Z,8.57
2022-10-18T12:36:11.020Z,6.47
2022-10-18T12:39:05.737Z,7.87
2022-10-18T12:41:55.631Z,5.90
2022-10-18T12:44:42.634Z,5.87
2022-10-18T12:47:33.061Z,7.53
2022-10-18T12:50:43.875Z,7.83
2022-10-18T12:53:32.168Z,8.80
2022-10-18T12:56:28.121Z,10.60
2022-10-18T12:59:15.162Z,10.10
2022-10-18T13:02:05.069Z,9.43
2022-10-18T13:04:52.194Z,7.63
2022-10-18T13:07:41.106Z,7.53
2022-10-18T13:10:37.088Z,15.90
2022-10-18T13:13:40.244Z,8.23
2022-10-18T13:16:34.223Z,7.77
2022-10-18T13:19:51.377Z,7.37
2022-10-18T13:23:00.122Z,8.43
2022-10-18T13:26:12.981Z,9.23
2022-10-18T13:29:19.645Z,8.53
2022-10-18T13:32:30.457Z,9.77
2022-10-18T13:35:55.597Z,5.53
2022-10-18T13:39:04.437Z,8.10
2022-10-18T13:41:55.093Z,6.30
2022-10-18T13:44:46.426Z,6.23
2022-10-18T13:47:38.073Z,8.00
2022-10-18T13:50:34.189Z,7.07
2022-10-18T13:53:40.307Z,4.27
2022-10-18T13:56:36.741Z,7.37
2022-10-18T13:59:32.786Z,7.00
2022-10-18T14:02:59.698Z,5.10
2022-10-18T14:06:10.479Z,6.97
2022-10-18T14:09:26.407Z,5.27
2022-10-18T14:12:35.448Z,4.13
2022-10-18T14:15:34.437Z,3.30
2022-10-18T14:18:31.839Z,4.43
2022-10-18T14:21:31.412Z,3.63
2022-10-18T14:24:24.898Z,5.60
2022-10-18T14:27:25.915Z,7.23
2022-10-18T14:30:12.812Z,7.00
2022-10-18T14:32:59.760Z,4.93
2022-10-18T14:35:59.200Z,4.83
2022-10-18T14:38:46.207Z,5.03
2022-10-18T14:41:35.527Z,7.73
2022-10-18T14:44:40.444Z,5.97
2022-10-18T14:47:31.777Z,5.23
2022-10-18T14:50:23.990Z,4.97
2022-10-18T14:53:18.762Z,6.57
2022-10-18T14:56:07.639Z,7.50
2022-10-18T14:58:57.312Z,4.27
2022-10-18T15:01:54.016Z,9.57
2022-10-18T15:04:44.318Z,5.27
2022-10-18T15:07:32.532Z,5.07
2022-10-18T15:10:27.477Z,5.70
2022-10-18T15:13:15.973Z,4.80
2022-10-18T15:16:03.478Z,4.63
2022-10-18T15:19:28.705Z,7.10
2022-10-18T15:22:32.116Z,7.10
2022-10-18T15:25:31.559Z,8.87
2022-10-18T15:28:30.512Z,6.37
2022-10-18T15:31:25.524Z,6.63
2022-10-18T15:34:26.991Z,8.37
2022-10-18T15:37:37.707Z,6.77
2022-10-18T15:40:24.783Z,11.17
2022-10-18T15:43:23.917Z,6.53
2022-10-18T15:46:30.178Z,5.77
2022-10-18T15:49:46.337Z,8.77
2022-10-18T15:52:39.000Z,5.97
2022-10-18T15:55:33.774Z,8.50
2022-10-18T15:58:39.270Z,4.23
2022-10-18T16:01:37.742Z,7.33
2022-10-18T16:04:33.221Z,8.40
2022-10-18T16:07:20.456Z,5.60
2022-10-18T16:10:13.787Z,10.17
2022-10-18T16:13:00.741Z,5.67
2022-10-18T16:15:47.918Z,5.77
2022-10-18T16:18:34.906Z,4.40
2022-10-18T16:21:26.788Z,6.77
2022-10-18T16:24:13.796Z,9.73
2022-10-18T16:27:00.799Z,4.77
2022-10-18T16:29:47.798Z,4.50
2022-10-18T16:32:34.904Z,6.20
2022-10-18T16:35:21.974Z,4.43
2022-10-18T16:38:20.418Z,8.10
2022-10-18T16:41:08.837Z,4.07
2022-10-18T16:43:55.854Z,9.57
2022-10-18T16:46:42.827Z,5.67
2022-10-18T16:49:29.842Z,8.13
2022-10-18T16:52:16.837Z,6.57
2022-10-18T16:55:04.030Z,9.30
2022-10-18T16:57:51.859Z,10.47
2022-10-18T17:00:40.349Z,9.70
2022-10-18T17:03:27.332Z,7.10
2022-10-18T17:06:20.773Z,7.93
2022-10-18T17:09:09.551Z,5.93
2022-10-18T17:11:56.644Z,7.63
2022-10-18T17:14:43.565Z,9.83
2022-10-18T17:17:30.935Z,5.40
2022-10-18T17:20:32.117Z,9.63
2022-10-18T17:23:19.381Z,8.00
2022-10-18T17:26:26.206Z,11.33
2022-10-18T17:29:13.355Z,12.27
2022-10-18T17:32:00.380Z,9.17
2022-10-18T17:34:47.368Z,8.80
2022-10-18T17:37:34.694Z,9.23
2022-10-18T17:40:24.030Z,8.30
2022-10-18T17:43:13.322Z,7.87
2022-10-18T17:46:00.305Z,6.43
2022-10-18T17:48:47.529Z,9.93
2022-10-18T17:51:34.478Z,8.77
2022-10-18T17:54:21.798Z,8.10
2022-10-18T17:57:08.859Z,11.83
2022-10-18T17:59:56.418Z,9.97
2022-10-18T18:02:43.587Z,9.57
2022-10-18T18:05:32.704Z,11.13
2022-10-18T18:08:20.120Z,11.53
2022-10-18T18:11:07.365Z,8.13
2022-10-18T18:13:58.445Z,12.03
2022-10-18T18:16:47.390Z,11.13
2022-10-18T18:19:34.899Z,9.63
2022-10-18T18:22:21.877Z,11.13
2022-10-18T18:25:09.922Z,9.07
2022-10-18T18:27:57.031Z,6.30
2022-10-18T18:30:43.939Z,12.23
2022-10-18T18:33:33.086Z,7.87
2022-10-18T18:36:20.985Z,8.53
2022-10-18T18:39:09.387Z,8.90
2022-10-18T18:41:57.043Z,11.60
2022-10-18T18:44:46.482Z,8.57
2022-10-18T18:47:36.348Z,6.30
2022-10-18T18:50:24.247Z,9.57
2022-10-18T18:53:11.521Z,8.67
2022-10-18T18:56:07.723Z,11.87
2022-10-18T18:58:55.581Z,9.27
2022-10-18T19:01:43.955Z,7.77
2022-10-18T19:04:32.064Z,7.17
2022-10-18T19:07:19.648Z,7.03
2022-10-18T19:10:06.945Z,10.97
2022-10-18T19:12:54.521Z,9.17
2022-10-18T19:15:42.373Z,7.37
2022-10-18T19:18:30.774Z,10.30
2022-10-18T19:21:18.739Z,10.20
2022-10-18T19:24:07.975Z,8.57
2022-10-18T19:26:58.104Z,8.70
2022-10-18T19:29:46.168Z,5.80
2022-10-18T19:32:33.985Z,8.37
2022-10-18T19:35:22.309Z,8.47
2022-10-18T19:38:09.533Z,11.07
2022-10-18T19:40:56.594Z,9.17
2022-10-18T19:43:43.573Z,7.70
2022-10-18T19:46:30.569Z,8.43
2022-10-18T19:49:18.028Z,9.40
2022-10-18T19:52:05.569Z,6.70
2022-10-18T19:54:52.559Z,8.83
2022-10-18T19:57:39.597Z,11.33
2022-10-18T20:00:26.667Z,12.57
2022-10-18T20:03:13.895Z,9.07
2022-10-18T20:06:02.254Z,9.73
2022-10-18T20:08:49.766Z,8.00
2022-10-18T20:11:37.179Z,7.80
2022-10-18T20:14:24.170Z,10.20
2022-10-18T20:17:13.075Z,9.63
2022-10-18T20:20:00.084Z,11.17
2022-10-18T20:22:47.041Z,10.53
2022-10-18T20:25:34.087Z,7.60
2022-10-18T20:28:21.104Z,9.67
2022-10-18T20:31:17.984Z,8.00
2022-10-18T20:34:08.737Z,7.07
2022-10-18T20:36:55.837Z,9.87
2022-10-18T20:39:42.813Z,14.27
2022-10-18T20:42:29.835Z,10.97
2022-10-18T20:45:16.901Z,7.67
2022-10-18T20:48:04.077Z,6.07
2022-10-18T20:50:51.318Z,7.70
2022-10-18T20:53:39.334Z,6.10
2022-10-18T20:56:27.370Z,12.00
2022-10-18T20:59:14.806Z,13.03
2022-10-18T21:02:01.822Z,10.27
2022-10-18T21:04:48.833Z,11.47
2022-10-18T21:07:36.037Z,10.97
2022-10-18T21:10:23.722Z,12.53
2022-10-18T21:13:10.710Z,12.47
2022-10-18T21:15:59.189Z,7.73
2022-10-18T21:18:46.303Z,9.80
2022-10-18T21:21:33.396Z,11.37
2022-10-18T21:24:21.932Z,8.23
2022-10-18T21:27:08.912Z,9.33
2022-10-18T21:29:58.772Z,8.93
2022-10-18T21:32:46.954Z,8.70
2022-10-18T21:35:38.878Z,12.60
2022-10-18T21:38:26.844Z,10.10
2022-10-18T21:41:16.504Z,10.80
2022-10-18T21:44:05.695Z,12.87
2022-10-18T21:46:55.891Z,8.93
2022-10-18T21:49:43.561Z,10.13
2022-10-18T21:52:31.781Z,11.33
2022-10-18T21:55:19.317Z,12.30
2022-10-18T21:58:06.951Z,7.53
2022-10-18T22:00:54.422Z,14.03
2022-10-18T22:03:42.943Z,7.83
2022-10-18T22:06:32.876Z,12.93
2022-10-18T22:09:21.201Z,12.63
2022-10-18T22:12:10.851Z,13.30
2022-10-18T22:14:58.068Z,8.83
2022-10-18T22:17:45.045Z,12.00
2022-10-18T22:20:32.029Z,10.27
2022-10-18T22:23:18.998Z,12.00
2022-10-18T22:26:11.471Z,12.07
2022-10-18T22:29:04.238Z,10.63
2022-10-18T22:31:53.581Z,14.50
2022-10-18T22:34:40.689Z,14.97
2022-10-18T22:37:27.626Z,15.57
2022-10-18T22:40:14.653Z,9.93
2022-10-18T22:43:01.550Z,10.33
2022-10-18T22:45:48.513Z,9.53
2022-10-18T22:48:36.262Z,8.00
2022-10-18T22:51:23.270Z,11.37
2022-10-18T22:54:10.604Z,11.87
2022-10-18T22:56:57.581Z,11.83
2022-10-18T22:59:44.545Z,12.10
2022-10-18T23:02:31.712Z,12.70
2022-10-18T23:05:18.876Z,9.73
2022-10-18T23:08:07.533Z,8.33
2022-10-18T23:10:57.250Z,8.97
2022-10-18T23:13:44.557Z,9.40
2022-10-18T23:16:32.396Z,11.87
2022-10-18T23:19:19.409Z,9.57
2022-10-18T23:22:06.382Z,11.00
2022-10-18T23:24:53.314Z,11.63
2022-10-18T23:27:40.412Z,9.17
2022-10-18T23:30:27.327Z,14.07
2022-10-18T23:33:14.335Z,9.80
2022-10-18T23:36:01.300Z,9.43
2022-10-18T23:38:48.494Z,8.87
2022-10-18T23:41:35.524Z,15.40
2022-10-18T23:44:22.502Z,12.53
2022-10-18T23:47:09.460Z,11.87
2022-10-18T23:49:58.882Z,11.70
2022-10-18T23:52:45.828Z,8.07
2022-10-18T23:55:32.790Z,9.57
2022-10-18T23:58:19.852Z,9.97
